Time;durP1;ratioP1;P1;durP2;ratioP2;P2;SDS_P1;SDS_P2;PMS_P1;PMS_P2;Temp;Humidity;BMP_temperature;BMP_pressure;BME280_temperature;BME280_humidity;BME280_pressure;Samples;Min_cycle;Max_cycle;Signal;HPM_P1;HPM_P2
2020/12/26 00:01:21;;;;;;;48.58;34.78;;;4.50;96.40;;;;;;5109655;28;20246;-78
2020/12/26 00:03:53;;;;;;;43.90;32.08;;;4.30;96.20;;;;;;5108708;28;20203;-78
2020/12/26 00:06:20;;;;;;;42.53;31.83;;;4.30;96.50;;;;;;5109970;28;20176;-78
2020/12/26 00:08:46;;;;;;;41.38;32.65;;;4.30;96.20;;;;;;5109614;28;20203;-78
2020/12/26 00:11:14;;;;;;;42.75;33.35;;;4.20;96.50;;;;;;5110329;28;20650;-78
2020/12/26 00:13:40;;;;;;;42.70;34.45;;;4.20;96.20;;;;;;5109985;28;20624;-78
2020/12/26 00:16:12;;;;;;;37.80;30.37;;;4.20;96.50;;;;;;5109907;28;20180;-78
2020/12/26 00:18:45;;;;;;;39.50;30.40;;;4.20;96.40;;;;;;5107077;28;20471;-78
2020/12/26 00:21:16;;;;;;;43.50;30.58;;;4.10;96.50;;;;;;5105807;28;20187;-78
2020/12/26 00:23:45;;;;;;;41.13;32.80;;;4.10;96.40;;;;;;5109549;28;20182;-78
2020/12/26 00:26:20;;;;;;;40.45;31.08;;;4.10;97.00;;;;;;5096605;28;20186;-78
2020/12/26 00:28:46;;;;;;;44.28;34.10;;;4.10;96.40;;;;;;5093536;28;20187;-78
2020/12/26 00:31:16;;;;;;;70.03;47.33;;;4.10;96.70;;;;;;5097060;28;20229;-78
2020/12/26 00:33:46;;;;;;;72.63;46.70;;;4.10;96.60;;;;;;5101353;28;20196;-78
2020/12/26 00:36:14;;;;;;;57.17;40.95;;;4.00;96.50;;;;;;5106026;28;20663;-78
2020/12/26 00:38:49;;;;;;;53.88;39.67;;;4.10;96.40;;;;;;5109006;28;20612;-78
2020/12/26 00:41:17;;;;;;;55.55;38.70;;;4.10;96.40;;;;;;5107624;28;20183;-78
2020/12/26 00:43:43;;;;;;;44.15;33.13;;;4.10;96.50;;;;;;5107241;28;20719;-78
2020/12/26 00:46:23;;;;;;;58.27;39.00;;;4.10;96.70;;;;;;5105736;28;20252;-78
2020/12/26 00:48:49;;;;;;;42.08;34.58;;;4.10;96.30;;;;;;5087353;28;20341;-78
2020/12/26 00:51:17;;;;;;;44.97;33.33;;;4.20;96.60;;;;;;5086407;28;20184;-78
2020/12/26 00:53:43;;;;;;;41.72;30.83;;;4.20;96.40;;;;;;5088213;28;20604;-78
2020/12/26 00:56:12;;;;;;;42.83;29.83;;;4.20;96.00;;;;;;5088511;28;20180;-78
2020/12/26 00:58:43;;;;;;;39.65;31.60;;;4.20;95.80;;;;;;5088546;28;20205;-78
2020/12/26 01:01:08;;;;;;;40.28;32.08;;;4.30;96.60;;;;;;5088596;28;20201;-78
2020/12/26 01:03:38;;;;;;;38.47;28.77;;;4.30;96.10;;;;;;5094745;28;20659;-78
2020/12/26 01:06:04;;;;;;;36.22;28.38;;;4.30;95.90;;;;;;5106587;28;20171;-78
2020/12/26 01:08:29;;;;;;;35.17;27.27;;;4.30;95.70;;;;;;5107786;28;20190;-78
2020/12/26 01:10:58;;;;;;;34.03;27.70;;;4.30;95.80;;;;;;5107986;28;20172;-78
2020/12/26 01:13:26;;;;;;;35.88;27.60;;;4.40;96.10;;;;;;5108724;28;20223;-78
2020/12/26 01:15:56;;;;;;;40.25;28.73;;;4.40;95.70;;;;;;5108336;28;20183;-78
2020/12/26 01:18:24;;;;;;;37.53;27.25;;;4.40;95.00;;;;;;5107117;28;20204;-78
2020/12/26 01:20:50;;;;;;;36.35;26.77;;;4.40;95.50;;;;;;5108173;28;20223;-78
2020/12/26 01:23:16;;;;;;;34.10;27.00;;;4.30;94.80;;;;;;5107580;28;20175;-78
2020/12/26 01:25:48;;;;;;;38.38;28.40;;;4.30;95.20;;;;;;5107152;28;20267;-78
2020/12/26 01:28:20;;;;;;;32.55;25.65;;;4.30;95.30;;;;;;5108436;28;20187;-78
2020/12/26 01:30:51;;;;;;;32.45;24.23;;;4.30;95.10;;;;;;5106901;28;20178;-78
2020/12/26 01:33:23;;;;;;;31.50;23.35;;;4.30;95.20;;;;;;5108205;28;20176;-78
2020/12/26 01:35:51;;;;;;;28.42;22.05;;;4.30;94.80;;;;;;5107117;28;20172;-78
2020/12/26 01:38:17;;;;;;;29.50;22.50;;;4.30;94.50;;;;;;5107714;28;20626;-78
2020/12/26 01:40:55;;;;;;;28.60;22.33;;;4.30;94.80;;;;;;5106994;28;20646;-78
2020/12/26 01:43:26;;;;;;;32.17;23.58;;;4.30;94.70;;;;;;5106747;28;20194;-78
2020/12/26 01:45:52;;;;;;;29.13;21.20;;;4.30;95.20;;;;;;5106788;28;20587;-78
2020/12/26 01:48:18;;;;;;;32.80;21.77;;;4.30;94.60;;;;;;5106641;28;20274;-78
2020/12/26 01:50:44;;;;;;;29.13;20.97;;;4.30;94.80;;;;;;5107531;28;20674;-78
2020/12/26 01:53:11;;;;;;;26.33;20.92;;;4.30;94.90;;;;;;5107369;28;20227;-78
2020/12/26 01:55:40;;;;;;;24.60;19.40;;;4.30;94.50;;;;;;5105812;28;20175;-78
2020/12/26 01:58:13;;;;;;;27.35;20.40;;;4.20;94.50;;;;;;5108181;28;20206;-78
2020/12/26 02:00:42;;;;;;;29.50;19.63;;;4.30;94.30;;;;;;5107873;28;20164;-78
2020/12/26 02:03:11;;;;;;;23.95;17.95;;;4.30;94.30;;;;;;5106943;28;20266;-78
2020/12/26 02:05:37;;;;;;;24.20;17.77;;;4.40;94.00;;;;;;5108124;28;20182;-78
2020/12/26 02:08:07;;;;;;;21.63;17.00;;;4.40;94.40;;;;;;5107448;28;20188;-78
2020/12/26 02:10:36;;;;;;;22.60;16.35;;;4.50;93.90;;;;;;5106883;28;20430;-78
2020/12/26 02:13:01;;;;;;;20.00;15.10;;;4.50;93.10;;;;;;5105686;28;20643;-78
2020/12/26 02:15:30;;;;;;;23.80;16.60;;;4.50;93.00;;;;;;5108231;28;20176;-78
2020/12/26 02:17:55;;;;;;;17.98;14.75;;;4.50;92.80;;;;;;5106220;28;20211;-78
2020/12/26 02:20:21;;;;;;;22.17;16.03;;;4.50;93.00;;;;;;5107731;28;20244;-78
2020/12/26 02:22:50;;;;;;;23.20;15.50;;;4.50;93.40;;;;;;5106401;28;20176;-78
2020/12/26 02:25:18;;;;;;;19.95;14.25;;;4.50;93.50;;;;;;5106525;28;20551;-78
2020/12/26 02:27:43;;;;;;;20.30;15.13;;;4.60;92.90;;;;;;5106542;28;20212;-78
2020/12/26 02:30:09;;;;;;;16.07;13.90;;;4.50;92.90;;;;;;5105542;28;20191;-78
2020/12/26 02:32:37;;;;;;;19.57;14.20;;;4.60;92.70;;;;;;5107377;28;20184;-78
2020/12/26 02:35:04;;;;;;;16.60;11.57;;;4.60;93.20;;;;;;5107880;28;20199;-78
2020/12/26 02:37:32;;;;;;;16.50;12.10;;;4.60;92.80;;;;;;5107646;28;20323;-78
2020/12/26 02:40:01;;;;;;;16.17;12.10;;;4.60;92.00;;;;;;5106203;28;20183;-78
2020/12/26 02:42:26;;;;;;;16.65;11.85;;;4.70;91.90;;;;;;5107545;28;20176;-78
2020/12/26 02:44:52;;;;;;;14.43;10.03;;;4.70;92.40;;;;;;5106591;28;20498;-78
2020/12/26 02:47:17;;;;;;;13.00;9.90;;;4.70;91.90;;;;;;5106724;28;20261;-78
2020/12/26 02:49:43;;;;;;;17.50;11.77;;;4.80;92.20;;;;;;5111830;28;20186;-78
2020/12/26 02:52:14;;;;;;;13.60;9.70;;;4.80;91.80;;;;;;5110118;28;20569;-78
2020/12/26 02:54:49;;;;;;;14.07;9.88;;;4.80;91.50;;;;;;5111981;28;20164;-78
2020/12/26 02:57:14;;;;;;;16.00;11.15;;;4.80;91.30;;;;;;5109849;28;20190;-78
2020/12/26 02:59:43;;;;;;;15.63;10.97;;;4.90;92.00;;;;;;5110172;28;20164;-78
2020/12/26 03:02:08;;;;;;;13.45;10.82;;;4.90;91.80;;;;;;5109324;28;20206;-78
2020/12/26 03:04:40;;;;;;;15.30;11.17;;;4.90;91.30;;;;;;5110787;28;20654;-78
2020/12/26 03:07:08;;;;;;;14.27;10.07;;;4.90;92.10;;;;;;5111432;28;20680;-78
2020/12/26 03:09:34;;;;;;;14.15;9.27;;;5.00;92.20;;;;;;5109573;28;20267;-78
2020/12/26 03:12:00;;;;;;;14.73;10.30;;;5.00;92.00;;;;;;5111363;28;20595;-78
2020/12/26 03:14:25;;;;;;;11.73;9.37;;;5.00;91.50;;;;;;5110064;28;20179;-78
2020/12/26 03:16:51;;;;;;;13.80;10.50;;;5.00;92.00;;;;;;5111042;28;20249;-78
2020/12/26 03:19:16;;;;;;;14.13;9.90;;;5.00;92.30;;;;;;5111142;28;20219;-78
2020/12/26 03:21:45;;;;;;;15.73;10.63;;;5.00;91.90;;;;;;5109790;28;20183;-78
2020/12/26 03:24:13;;;;;;;13.77;9.93;;;5.00;91.80;;;;;;5111110;28;20562;-78
2020/12/26 03:26:39;;;;;;;15.77;10.45;;;4.90;92.00;;;;;;5109773;28;20194;-78
2020/12/26 03:29:04;;;;;;;16.07;10.63;;;5.00;91.50;;;;;;5111231;27;20179;-78
2020/12/26 03:31:30;;;;;;;14.40;9.87;;;4.90;92.00;;;;;;5111190;28;20187;-78
2020/12/26 03:34:08;;;;;;;20.00;10.53;;;5.00;92.20;;;;;;5109012;28;20191;-78
2020/12/26 03:36:45;;;;;;;12.07;9.30;;;5.00;92.20;;;;;;5090095;28;20194;-78
2020/12/26 03:39:17;;;;;;;19.05;11.13;;;4.90;92.00;;;;;;5109426;28;20210;-78
2020/12/26 03:41:45;;;;;;;13.60;10.30;;;4.90;91.90;;;;;;5111107;28;20180;-78
2020/12/26 03:44:11;;;;;;;16.45;10.98;;;4.90;91.80;;;;;;5109689;28;20194;-78
2020/12/26 03:46:39;;;;;;;14.53;9.77;;;4.90;92.20;;;;;;5110305;28;20612;-78
2020/12/26 03:49:08;;;;;;;17.83;10.98;;;4.90;92.20;;;;;;5110625;28;20172;-78
2020/12/26 03:51:37;;;;;;;13.90;9.82;;;5.00;91.80;;;;;;5107850;28;20180;-78
2020/12/26 03:54:14;;;;;;;14.32;10.10;;;5.00;91.90;;;;;;5109320;28;20498;-78
2020/12/26 03:56:43;;;;;;;13.65;10.18;;;5.00;91.90;;;;;;5110500;28;20171;-78
2020/12/26 03:59:09;;;;;;;15.13;11.50;;;5.00;92.30;;;;;;5109769;28;20671;-78
2020/12/26 04:01:37;;;;;;;14.35;10.95;;;5.00;92.10;;;;;;5108770;28;20466;-78
2020/12/26 04:04:15;;;;;;;13.88;10.32;;;5.00;92.20;;;;;;5110248;28;20180;-78
2020/12/26 04:06:45;;;;;;;17.17;11.82;;;5.00;92.30;;;;;;5107717;28;20777;-77
2020/12/26 04:09:13;;;;;;;16.92;11.70;;;5.00;92.30;;;;;;5110516;28;20691;-78
2020/12/26 04:11:46;;;;;;;22.90;15.70;;;5.10;92.70;;;;;;5109488;28;20200;-78
2020/12/26 04:14:20;;;;;;;17.75;13.30;;;5.10;92.70;;;;;;5108898;28;20734;-78
2020/12/26 04:16:46;;;;;;;15.80;11.38;;;5.10;92.80;;;;;;5109967;28;20175;-78
2020/12/26 04:19:11;;;;;;;15.77;11.13;;;5.10;93.00;;;;;;5108779;28;20206;-78
2020/12/26 04:21:40;;;;;;;16.83;11.67;;;5.20;92.20;;;;;;5109486;28;20640;-78
2020/12/26 04:24:08;;;;;;;16.27;11.10;;;5.20;92.60;;;;;;5108945;28;20218;-78
2020/12/26 04:26:34;;;;;;;17.65;12.23;;;5.20;92.80;;;;;;5108564;28;20744;-78
2020/12/26 04:29:00;;;;;;;16.10;10.93;;;5.30;92.70;;;;;;5110497;28;20234;-78
2020/12/26 04:31:28;;;;;;;15.87;11.57;;;5.20;92.90;;;;;;5110378;28;20183;-78
2020/12/26 04:34:08;;;;;;;24.10;17.23;;;5.10;93.20;;;;;;5110407;28;20631;-78
2020/12/26 04:36:34;;;;;;;21.38;15.88;;;5.10;93.10;;;;;;5090014;28;20619;-78
2020/12/26 04:38:59;;;;;;;25.70;19.30;;;5.00;92.80;;;;;;5105999;28;20286;-78
2020/12/26 04:41:31;;;;;;;18.10;13.63;;;4.90;91.90;;;;;;5109859;28;20182;-78
2020/12/26 04:43:56;;;;;;;18.25;11.63;;;5.00;91.80;;;;;;5108961;28;20187;-78
2020/12/26 04:46:29;;;;;;;11.57;9.23;;;5.10;91.40;;;;;;5109440;28;20182;-78
2020/12/26 04:49:07;;;;;;;13.05;9.05;;;5.20;91.40;;;;;;5110287;28;20201;-78
2020/12/26 04:51:49;;;;;;;13.93;8.75;;;5.20;92.00;;;;;;5108938;28;20225;-78
2020/12/26 04:54:26;;;;;;;13.50;9.48;;;5.10;92.10;;;;;;5109313;28;20176;-78
2020/12/26 04:56:56;;;;;;;10.85;8.85;;;5.10;92.60;;;;;;5109307;28;20240;-78
2020/12/26 04:59:23;;;;;;;13.45;9.43;;;5.10;92.80;;;;;;5109303;28;20203;-78
2020/12/26 05:01:52;;;;;;;14.20;11.60;;;5.00;92.30;;;;;;5109858;28;20281;-78
2020/12/26 05:04:27;;;;;;;39.00;22.45;;;5.00;92.30;;;;;;5109073;28;20228;-78
2020/12/26 05:06:53;;;;;;;28.83;20.00;;;5.00;91.90;;;;;;5109641;28;20192;-78
2020/12/26 05:09:25;;;;;;;17.00;12.10;;;5.00;92.10;;;;;;5109339;28;20211;-78
2020/12/26 05:12:00;;;;;;;12.75;10.07;;;5.00;92.30;;;;;;5108334;28;20237;-78
2020/12/26 05:14:31;;;;;;;16.15;11.48;;;5.10;91.80;;;;;;5109036;28;20204;-78
2020/12/26 05:17:03;;;;;;;15.05;10.45;;;5.10;92.30;;;;;;5109028;28;20240;-78
2020/12/26 05:19:29;;;;;;;14.45;10.30;;;5.10;92.30;;;;;;5109423;28;20195;-78
2020/12/26 05:21:56;;;;;;;16.90;11.23;;;5.10;92.90;;;;;;5109671;28;20179;-78
2020/12/26 05:24:24;;;;;;;17.50;11.32;;;5.10;93.50;;;;;;5108859;28;20176;-78
2020/12/26 05:26:54;;;;;;;16.92;11.23;;;5.10;92.70;;;;;;5108839;28;20659;-78
2020/12/26 05:29:23;;;;;;;15.43;10.82;;;5.10;92.90;;;;;;5106618;28;20615;-78
2020/12/26 05:32:03;;;;;;;16.42;10.43;;;5.10;93.40;;;;;;5107562;28;20278;-78
2020/12/26 05:34:41;;;;;;;13.80;10.57;;;5.10;93.50;;;;;;5108494;28;20179;-78
2020/12/26 05:37:07;;;;;;;16.05;12.02;;;5.10;93.30;;;;;;5107435;28;20298;-78
2020/12/26 05:39:35;;;;;;;16.90;12.40;;;5.10;93.10;;;;;;5109179;28;20302;-78
2020/12/26 05:42:10;;;;;;;19.20;12.07;;;5.00;93.50;;;;;;5107851;28;20387;-78
2020/12/26 05:44:37;;;;;;;16.15;12.25;;;5.00;93.60;;;;;;5107537;28;20243;-78
2020/12/26 05:47:07;;;;;;;19.73;13.63;;;5.00;94.00;;;;;;5107376;28;20177;-78
2020/12/26 05:49:40;;;;;;;19.73;12.82;;;5.00;94.10;;;;;;5108877;28;20247;-78
2020/12/26 05:52:10;;;;;;;18.08;13.10;;;5.00;94.10;;;;;;5108116;28;20239;-78
2020/12/26 05:54:57;;;;;;;19.77;13.75;;;5.00;94.10;;;;;;5107068;28;20175;-78
2020/12/26 05:57:29;;;;;;;17.20;12.15;;;5.00;94.10;;;;;;5107335;28;20208;-78
2020/12/26 05:59:58;;;;;;;18.50;12.65;;;5.00;94.30;;;;;;5106486;28;20659;-78
2020/12/26 06:02:32;;;;;;;15.98;11.85;;;5.00;94.50;;;;;;5106730;28;20715;-78
2020/12/26 06:05:11;;;;;;;19.42;12.93;;;4.90;94.60;;;;;;5108010;28;20179;-78
2020/12/26 06:07:37;;;;;;;23.65;18.00;;;4.90;94.70;;;;;;5108354;28;20225;-78
2020/12/26 06:10:08;;;;;;;23.08;18.90;;;4.80;94.60;;;;;;5107200;28;20186;-78
2020/12/26 06:12:35;;;;;;;19.25;14.18;;;4.90;94.80;;;;;;5107604;28;20184;-78
2020/12/26 06:15:03;;;;;;;17.15;12.07;;;4.80;94.90;;;;;;5107934;28;20203;-78
2020/12/26 06:17:30;;;;;;;16.35;11.57;;;4.80;94.80;;;;;;5106812;28;20552;-78
2020/12/26 06:20:07;;;;;;;15.85;11.68;;;4.80;94.60;;;;;;5108046;28;20593;-77
2020/12/26 06:22:55;;;;;;;16.27;11.05;;;4.80;94.80;;;;;;5107436;28;20175;-77
2020/12/26 06:25:22;;;;;;;14.55;11.55;;;4.80;94.80;;;;;;5108090;28;20212;-77
2020/12/26 06:27:58;;;;;;;15.50;11.15;;;4.80;94.70;;;;;;5108186;28;20176;-77
2020/12/26 06:30:39;;;;;;;16.85;11.70;;;4.70;94.80;;;;;;5107538;28;20187;-77
2020/12/26 06:33:10;;;;;;;45.65;31.45;;;4.80;94.80;;;;;;5107309;28;20182;-77
2020/12/26 06:35:44;;;;;;;32.47;23.92;;;4.80;95.00;;;;;;5107536;28;20187;-77
2020/12/26 06:38:22;;;;;;;18.30;14.15;;;4.80;94.70;;;;;;5106227;28;20613;-77
2020/12/26 06:40:55;;;;;;;17.20;13.27;;;4.80;95.10;;;;;;5107461;28;20155;-77
2020/12/26 06:43:38;;;;;;;18.52;13.70;;;4.80;95.00;;;;;;5107614;28;20572;-77
2020/12/26 06:46:29;;;;;;;18.92;13.55;;;4.90;95.30;;;;;;5107891;28;20176;-77
2020/12/26 06:48:59;;;;;;;19.10;14.50;;;4.80;95.60;;;;;;5105454;28;20195;-77
2020/12/26 06:51:41;;;;;;;21.20;15.65;;;4.80;95.90;;;;;;5106711;28;20253;-77
2020/12/26 06:54:14;;;;;;;21.52;16.10;;;4.80;96.00;;;;;;5107653;28;20553;-77
2020/12/26 06:56:40;;;;;;;26.33;20.00;;;4.80;96.30;;;;;;5107528;28;20679;-77
2020/12/26 06:59:13;;;;;;;25.73;19.17;;;4.80;96.50;;;;;;5107271;28;20210;-77
2020/12/26 07:01:46;;;;;;;28.83;19.40;;;4.80;96.30;;;;;;5106140;28;20183;-77
2020/12/26 07:04:14;;;;;;;28.75;19.73;;;4.80;96.30;;;;;;5107565;28;20600;-77
2020/12/26 07:06:48;;;;;;;24.92;18.70;;;4.80;96.30;;;;;;5106301;28;20176;-77
2020/12/26 07:09:17;;;;;;;26.17;18.55;;;4.80;96.30;;;;;;5107233;28;20170;-77
2020/12/26 07:11:53;;;;;;;27.73;19.55;;;4.80;96.40;;;;;;5106418;28;20192;-77
2020/12/26 07:14:35;;;;;;;29.98;18.85;;;4.80;96.60;;;;;;5107406;28;20570;-76
2020/12/26 07:17:13;;;;;;;22.83;18.02;;;4.80;96.40;;;;;;5107857;28;20198;-76
2020/12/26 07:19:46;;;;;;;25.65;19.17;;;4.80;96.40;;;;;;5107662;28;20427;-76
2020/12/26 07:22:30;;;;;;;28.13;21.80;;;4.80;96.20;;;;;;5105035;28;20254;-77
2020/12/26 07:25:10;;;;;;;31.75;22.60;;;4.80;96.50;;;;;;5107315;28;20695;-77
2020/12/26 07:27:38;;;;;;;28.55;21.83;;;4.80;96.20;;;;;;5107874;28;20533;-77
2020/12/26 07:30:22;;;;;;;28.55;19.50;;;4.80;96.40;;;;;;5106519;28;20180;-77
2020/12/26 07:32:51;;;;;;;26.83;19.05;;;4.80;96.20;;;;;;5106702;28;20303;-76
2020/12/26 07:35:21;;;;;;;28.38;20.42;;;4.80;96.30;;;;;;5108847;28;20176;-77
2020/12/26 07:37:46;;;;;;;26.33;19.13;;;4.90;96.40;;;;;;5110492;28;20192;-77
2020/12/26 07:40:20;;;;;;;28.40;19.37;;;4.90;96.50;;;;;;5110469;28;20565;-77
2020/12/26 07:42:48;;;;;;;22.73;17.23;;;4.90;96.30;;;;;;5110857;28;20176;-77
2020/12/26 07:45:22;;;;;;;23.60;18.02;;;4.90;96.20;;;;;;5109420;28;20176;-77
2020/12/26 07:47:58;;;;;;;23.88;17.80;;;5.00;96.00;;;;;;5110641;28;20204;-77
2020/12/26 07:50:28;;;;;;;23.08;17.40;;;5.00;96.10;;;;;;5110540;28;20748;-77
2020/12/26 07:53:08;;;;;;;23.05;16.90;;;5.00;96.00;;;;;;5108904;28;20324;-77
2020/12/26 07:55:35;;;;;;;23.17;17.52;;;5.10;96.10;;;;;;5108334;28;20172;-77
2020/12/26 07:58:16;;;;;;;26.75;18.63;;;5.10;96.20;;;;;;5111143;27;20207;-77
2020/12/26 08:00:43;;;;;;;20.77;17.00;;;5.20;95.90;;;;;;5110769;28;20202;-77
2020/12/26 08:03:13;;;;;;;23.55;17.35;;;5.20;95.60;;;;;;5110727;28;20267;-78
2020/12/26 08:05:40;;;;;;;21.88;17.20;;;5.30;95.20;;;;;;5111422;28;20176;-78
2020/12/26 08:08:23;;;;;;;22.50;15.43;;;5.30;95.20;;;;;;5111288;28;20188;-77
2020/12/26 08:10:59;;;;;;;20.45;15.02;;;5.30;94.60;;;;;;5110294;28;20182;-78
2020/12/26 08:13:26;;;;;;;19.67;15.70;;;5.40;94.40;;;;;;5111596;28;20179;-77
2020/12/26 08:16:05;;;;;;;20.95;16.40;;;5.30;94.40;;;;;;5109593;28;20176;-78
2020/12/26 08:18:42;;;;;;;22.55;16.25;;;5.30;94.10;;;;;;5111407;28;20235;-77
2020/12/26 08:21:14;;;;;;;22.23;15.73;;;5.30;93.90;;;;;;5110914;28;20160;-77
2020/12/26 08:24:12;;;;;;;18.88;14.13;;;5.30;93.70;;;;;;5112032;28;20183;-78
2020/12/26 08:26:44;;;;;;;16.67;13.73;;;5.30;93.60;;;;;;5106016;28;20207;-78
2020/12/26 08:29:10;;;;;;;20.23;15.88;;;5.30;93.50;;;;;;5110115;28;20553;-77
2020/12/26 08:31:44;;;;;;;20.42;14.35;;;5.30;93.00;;;;;;5110519;28;20656;-77
2020/12/26 08:34:23;;;;;;;19.42;14.60;;;5.40;93.10;;;;;;5111764;28;20912;-77
2020/12/26 08:37:00;;;;;;;22.05;15.48;;;5.40;92.30;;;;;;5109327;28;20197;-77
2020/12/26 08:39:26;;;;;;;20.83;15.40;;;5.50;92.20;;;;;;5089359;28;20201;-78
2020/12/26 08:41:56;;;;;;;18.35;14.68;;;5.60;91.60;;;;;;5089958;28;20177;-78
2020/12/26 08:44:22;;;;;;;21.05;16.27;;;5.60;92.00;;;;;;5087950;28;20195;-77
2020/12/26 08:46:48;;;;;;;19.37;14.00;;;5.60;92.00;;;;;;5090281;28;20180;-78
2020/12/26 08:49:15;;;;;;;19.70;14.43;;;5.60;91.80;;;;;;5090157;28;20630;-77
2020/12/26 08:51:44;;;;;;;19.10;15.50;;;5.60;91.90;;;;;;5089538;28;20185;-78
2020/12/26 08:54:23;;;;;;;20.30;15.88;;;5.60;91.80;;;;;;5090505;28;20577;-77
2020/12/26 08:56:55;;;;;;;19.85;15.40;;;5.60;91.20;;;;;;5090528;28;20237;-77
2020/12/26 08:59:28;;;;;;;20.67;15.02;;;5.60;91.50;;;;;;5088294;28;20208;-78
2020/12/26 09:01:58;;;;;;;21.17;15.15;;;5.60;91.20;;;;;;5100556;28;20196;-78
2020/12/26 09:04:30;;;;;;;21.58;16.65;;;5.60;91.80;;;;;;5109365;28;20175;-77
2020/12/26 09:06:58;;;;;;;21.63;16.35;;;5.60;91.70;;;;;;5109551;28;20620;-78
2020/12/26 09:09:29;;;;;;;20.42;15.57;;;5.60;91.50;;;;;;5109946;28;20172;-78
2020/12/26 09:12:04;;;;;;;20.00;15.68;;;5.60;91.40;;;;;;5109130;28;20180;-78
2020/12/26 09:14:33;;;;;;;19.60;14.40;;;5.70;87.40;;;;;;5110207;28;20644;-78
2020/12/26 09:17:05;;;;;;;19.50;14.90;;;5.70;86.30;;;;;;5108927;28;20191;-78
2020/12/26 09:19:45;;;;;;;19.13;14.88;;;5.70;87.10;;;;;;5108296;28;20671;-78
2020/12/26 09:22:12;;;;;;;19.08;14.45;;;5.80;87.80;;;;;;5109355;28;20179;-78
2020/12/26 09:24:40;;;;;;;21.95;15.10;;;5.80;86.60;;;;;;5108995;28;20176;-78
2020/12/26 09:27:30;;;;;;;22.60;16.90;;;6.00;87.90;;;;;;5107167;28;20184;-78
2020/12/26 09:30:06;;;;;;;18.83;14.55;;;6.60;86.10;;;;;;5107160;28;20172;-78
2020/12/26 09:32:34;;;;;;;18.45;15.15;;;7.20;85.40;;;;;;5107670;28;20654;-78
2020/12/26 09:35:00;;;;;;;20.55;14.88;;;7.50;84.60;;;;;;5109340;28;20176;-78
2020/12/26 09:37:31;;;;;;;21.30;16.17;;;7.50;84.20;;;;;;5109028;28;20189;-78
2020/12/26 09:39:57;;;;;;;19.10;15.52;;;7.50;83.60;;;;;;5109019;27;20180;-78
2020/12/26 09:42:28;;;;;;;17.00;13.70;;;7.70;81.50;;;;;;5108392;28;20182;-79
2020/12/26 09:44:59;;;;;;;17.52;14.50;;;7.80;77.60;;;;;;5109226;28;20179;-78
2020/12/26 09:47:28;;;;;;;22.77;17.30;;;7.90;75.70;;;;;;5108827;28;20179;-78
2020/12/26 09:49:54;;;;;;;23.10;16.27;;;7.80;75.60;;;;;;5108745;28;20521;-78
2020/12/26 09:52:23;;;;;;;25.67;16.60;;;7.90;71.00;;;;;;5106735;28;20276;-78
2020/12/26 09:54:52;;;;;;;40.60;23.42;;;7.80;69.90;;;;;;5107978;28;20232;-78
2020/12/26 09:57:18;;;;;;;62.85;32.15;;;7.40;71.20;;;;;;5108508;28;20537;-78
2020/12/26 09:59:49;;;;;;;27.57;16.60;;;7.30;71.90;;;;;;5107305;28;20203;-78
2020/12/26 10:02:18;;;;;;;61.60;29.67;;;7.60;72.70;;;;;;5108530;28;20175;-79
2020/12/26 10:04:43;;;;;;;25.48;15.13;;;7.70;69.80;;;;;;5107345;28;20183;-77
2020/12/26 10:07:09;;;;;;;232.93;77.83;;;7.50;70.70;;;;;;5107078;28;20172;-78
2020/12/26 10:09:40;;;;;;;34.90;18.17;;;7.20;71.20;;;;;;5108455;28;20187;-78
2020/12/26 10:12:12;;;;;;;46.45;21.92;;;7.10;70.10;;;;;;5106820;28;20183;-78
2020/12/26 10:14:43;;;;;;;111.32;50.65;;;7.40;68.50;;;;;;5108539;28;20183;-78
2020/12/26 10:17:12;;;;;;;29.83;20.27;;;7.10;68.00;;;;;;5106674;28;20188;-77
2020/12/26 10:19:43;;;;;;;80.82;55.10;;;7.30;67.10;;;;;;5108702;28;20211;-77
2020/12/26 10:22:15;;;;;;;49.25;35.63;;;7.10;67.90;;;;;;5106206;28;20180;-78
2020/12/26 10:24:52;;;;;;;55.03;36.95;;;7.00;67.00;;;;;;5108323;28;20228;-78
2020/12/26 10:27:33;;;;;;;70.72;45.72;;;6.90;69.40;;;;;;5107989;28;20186;-78
2020/12/26 10:29:58;;;;;;;40.95;27.40;;;6.80;71.60;;;;;;5108277;28;20176;-78
2020/12/26 10:32:24;;;;;;;38.53;22.30;;;6.80;69.30;;;;;;5107658;28;20191;-78
2020/12/26 10:34:49;;;;;;;41.60;23.07;;;6.90;67.80;;;;;;5107859;28;20224;-78
2020/12/26 10:37:16;;;;;;;40.90;19.40;;;6.80;68.50;;;;;;5107152;28;20176;-78
2020/12/26 10:39:42;;;;;;;41.65;19.35;;;6.70;68.90;;;;;;5107659;28;20663;-78
2020/12/26 10:42:08;;;;;;;31.30;17.80;;;6.80;72.60;;;;;;5108749;28;20172;-77
2020/12/26 10:44:34;;;;;;;39.03;19.93;;;6.70;72.60;;;;;;5108367;28;20183;-78
2020/12/26 10:47:02;;;;;;;28.90;16.57;;;6.80;73.60;;;;;;5108618;28;20188;-78
2020/12/26 10:49:28;;;;;;;18.13;12.98;;;7.00;71.10;;;;;;5107260;28;20419;-78
2020/12/26 10:51:57;;;;;;;18.20;12.73;;;7.00;69.70;;;;;;5107573;28;20184;-78
2020/12/26 10:54:23;;;;;;;44.75;18.98;;;6.90;68.40;;;;;;5107408;28;20678;-78
2020/12/26 10:56:52;;;;;;;18.13;13.27;;;6.80;70.00;;;;;;5105970;28;20267;-78
2020/12/26 10:59:20;;;;;;;21.95;13.65;;;6.70;69.10;;;;;;5108181;28;20540;-77
2020/12/26 11:01:46;;;;;;;23.10;15.40;;;6.70;71.00;;;;;;5106694;28;20172;-78
2020/12/26 11:04:17;;;;;;;16.13;11.88;;;6.60;69.80;;;;;;5107296;28;20296;-78
2020/12/26 11:06:49;;;;;;;16.80;13.40;;;6.70;68.60;;;;;;5107564;28;20524;-78
2020/12/26 11:09:18;;;;;;;16.17;12.05;;;6.70;68.30;;;;;;5107672;28;20194;-78
2020/12/26 11:11:56;;;;;;;22.75;13.70;;;6.70;67.70;;;;;;5111823;28;21146;-77
2020/12/26 11:14:21;;;;;;;25.83;13.63;;;6.70;68.50;;;;;;5112038;28;20211;-78
2020/12/26 11:16:54;;;;;;;38.33;18.53;;;6.50;69.30;;;;;;5110450;28;20624;-78
2020/12/26 11:19:38;;;;;;;29.20;16.05;;;6.50;69.50;;;;;;5112824;28;21036;-78
2020/12/26 11:22:13;;;;;;;20.63;13.40;;;6.50;70.60;;;;;;5110670;28;20172;-78
2020/12/26 11:24:38;;;;;;;21.42;12.63;;;6.70;70.20;;;;;;5111678;28;20599;-77
2020/12/26 11:27:08;;;;;;;13.33;10.00;;;6.70;71.70;;;;;;5110060;28;20237;-78
2020/12/26 11:29:37;;;;;;;19.35;11.85;;;6.90;70.10;;;;;;5109823;28;20203;-78
2020/12/26 11:32:05;;;;;;;21.92;13.40;;;6.90;66.90;;;;;;5112409;28;20778;-77
2020/12/26 11:34:37;;;;;;;22.55;13.85;;;6.60;69.80;;;;;;5110068;28;20190;-78
2020/12/26 11:37:08;;;;;;;17.20;12.10;;;6.80;72.00;;;;;;5111503;28;20176;-77
2020/12/26 11:39:34;;;;;;;24.65;17.27;;;6.80;73.00;;;;;;5111522;28;20660;-77
2020/12/26 11:41:59;;;;;;;16.90;13.13;;;6.80;74.60;;;;;;5107235;28;20182;-77
2020/12/26 11:44:25;;;;;;;15.33;12.57;;;6.80;74.10;;;;;;5108388;28;20226;-78
2020/12/26 11:47:03;;;;;;;14.80;12.63;;;6.80;73.30;;;;;;5110542;28;20628;-78
2020/12/26 11:49:28;;;;;;;17.25;12.00;;;6.80;72.80;;;;;;5109915;28;20194;-77
2020/12/26 11:52:00;;;;;;;16.17;11.67;;;6.80;72.10;;;;;;5111132;28;20179;-77
2020/12/26 11:54:25;;;;;;;16.88;12.30;;;6.80;72.80;;;;;;5109963;28;20434;-77
2020/12/26 11:57:07;;;;;;;14.07;10.77;;;6.80;72.70;;;;;;5110466;28;20229;-78
2020/12/26 11:59:39;;;;;;;29.70;15.10;;;6.80;70.90;;;;;;5110888;28;20215;-78
2020/12/26 12:02:05;;;;;;;14.65;9.68;;;6.90;66.50;;;;;;5110651;28;20574;-78
2020/12/26 12:04:36;;;;;;;25.53;13.03;;;6.80;66.10;;;;;;5109668;28;20277;-78
2020/12/26 12:07:05;;;;;;;40.10;19.73;;;6.90;65.00;;;;;;5109040;28;20408;-78
2020/12/26 12:09:30;;;;;;;60.10;27.27;;;6.80;65.00;;;;;;5108990;28;20191;-78
2020/12/26 12:11:56;;;;;;;34.77;19.07;;;6.60;65.50;;;;;;5109957;28;20352;-77
2020/12/26 12:14:22;;;;;;;23.57;15.37;;;6.60;68.00;;;;;;5110263;28;20956;-78
2020/12/26 12:16:51;;;;;;;23.42;17.42;;;6.60;66.30;;;;;;5109665;28;20179;-78
2020/12/26 12:19:20;;;;;;;21.35;14.75;;;6.60;66.80;;;;;;5110068;28;20212;-78
2020/12/26 12:21:54;;;;;;;21.20;12.10;;;6.80;65.30;;;;;;5108156;28;20195;-78
2020/12/26 12:24:20;;;;;;;21.55;13.32;;;6.60;66.30;;;;;;5109035;28;20176;-78
2020/12/26 12:26:46;;;;;;;14.83;12.90;;;6.50;68.10;;;;;;5109831;28;20218;-77
2020/12/26 12:29:11;;;;;;;14.87;12.40;;;6.50;73.70;;;;;;5109213;28;20226;-78
2020/12/26 12:31:39;;;;;;;16.57;13.40;;;6.40;77.10;;;;;;5109142;28;20586;-78
2020/12/26 12:34:17;;;;;;;16.95;12.40;;;6.40;77.40;;;;;;5110441;28;20211;-77
2020/12/26 12:36:43;;;;;;;15.60;12.02;;;6.40;78.70;;;;;;5108945;28;20541;-78
2020/12/26 12:39:09;;;;;;;16.80;13.50;;;6.40;79.10;;;;;;5108321;28;20231;-78
2020/12/26 12:41:37;;;;;;;15.57;12.90;;;6.40;80.00;;;;;;5109083;28;20779;-78
2020/12/26 12:44:15;;;;;;;17.73;13.80;;;6.60;78.80;;;;;;5108564;28;20188;-78
2020/12/26 12:46:43;;;;;;;15.60;12.70;;;6.90;78.70;;;;;;5108867;28;20180;-78
2020/12/26 12:49:09;;;;;;;15.27;12.73;;;7.10;78.30;;;;;;5109459;28;20187;-78
2020/12/26 12:51:38;;;;;;;17.13;12.60;;;7.30;76.30;;;;;;5109127;28;20247;-78
2020/12/26 12:54:06;;;;;;;20.90;13.18;;;7.40;77.10;;;;;;5108604;28;20191;-78